Magnolia Square, Florida
Current Conditions -  °F | °C
As of 10:53 PM on Wednesday 28 Jan 2015 (Local Time) from KMCO Reporting Station
Clear Clear  
Wind Chill: 43°   Ceiling: Unl
Heat Index: 47°   Visibility: 10mi
Dew Point: 41°   Wind: 9mph
Humidity: 80%   Direction: 350°N
Pressure: 30.3"   Gusts: NA
Location:  28.2734°N, 81.1262°W
Report Text: KMCO 290353Z 35008KT 10SM CLR 08/05 A3030 RMK AO2 SLP258 T00830050
Loading
Personal Weather Stations






























Interactive Weather Map New forecast layout! Learn more

10-Day Weather Forecast

Advertisements
Track Severe Weather on mobile